sensor_id;sensor_type;location;lat;lon;timestamp;temperature;humidity
37938;DHT22;23763;48.130;11.602;2023-03-01T00:00:38;2.00;99.90
37938;DHT22;23763;48.130;11.602;2023-03-01T00:03:03;2.10;99.90
37938;DHT22;23763;48.130;11.602;2023-03-01T00:05:29;2.10;99.90
37938;DHT22;23763;48.130;11.602;2023-03-01T00:07:54;2.10;99.90
37938;DHT22;23763;48.130;11.602;2023-03-01T00:10:20;2.10;99.90
37938;DHT22;23763;48.130;11.602;2023-03-01T00:12:46;2.10;99.90
37938;DHT22;23763;48.130;11.602;2023-03-01T00:15:11;2.20;99.90
37938;DHT22;23763;48.130;11.602;2023-03-01T00:17:37;2.20;99.90
37938;DHT22;23763;48.130;11.602;2023-03-01T00:20:03;2.10;99.90
37938;DHT22;23763;48.130;11.602;2023-03-01T00:22:33;2.10;99.90
37938;DHT22;23763;48.130;11.602;2023-03-01T00:24:58;2.10;99.90
37938;DHT22;23763;48.130;11.602;2023-03-01T00:27:24;2.10;99.90
37938;DHT22;23763;48.130;11.602;2023-03-01T00:29:49;2.10;99.90
37938;DHT22;23763;48.130;11.602;2023-03-01T00:32:15;2.10;99.90
37938;DHT22;23763;48.130;11.602;2023-03-01T00:34:40;2.10;99.90
37938;DHT22;23763;48.130;11.602;2023-03-01T00:37:06;2.20;99.90
37938;DHT22;23763;48.130;11.602;2023-03-01T00:39:32;2.20;99.90
37938;DHT22;23763;48.130;11.602;2023-03-01T00:41:58;2.20;99.90
37938;DHT22;23763;48.130;11.602;2023-03-01T00:44:24;2.20;99.90
37938;DHT22;23763;48.130;11.602;2023-03-01T00:46:49;2.30;99.90
37938;DHT22;23763;48.130;11.602;2023-03-01T00:49:15;2.20;99.90
37938;DHT22;23763;48.130;11.602;2023-03-01T00:51:41;2.20;99.90
37938;DHT22;23763;48.130;11.602;2023-03-01T00:54:09;2.20;99.90
37938;DHT22;23763;48.130;11.602;2023-03-01T00:56:35;2.10;99.90
37938;DHT22;23763;48.130;11.602;2023-03-01T00:59:01;2.00;99.90
37938;DHT22;23763;48.130;11.602;2023-03-01T01:01:29;2.00;99.90
37938;DHT22;23763;48.130;11.602;2023-03-01T01:04:02;2.00;99.90
37938;DHT22;23763;48.130;11.602;2023-03-01T01:06:33;2.00;99.90
37938;DHT22;23763;48.130;11.602;2023-03-01T01:09:00;2.00;99.90
37938;DHT22;23763;48.130;11.602;2023-03-01T01:11:27;2.10;99.90
37938;DHT22;23763;48.130;11.602;2023-03-01T01:13:54;2.10;99.90
37938;DHT22;23763;48.130;11.602;2023-03-01T01:16:22;2.00;99.90
37938;DHT22;23763;48.130;11.602;2023-03-01T01:18:48;2.00;99.90
37938;DHT22;23763;48.130;11.602;2023-03-01T01:21:16;2.10;99.90
37938;DHT22;23763;48.130;11.602;2023-03-01T01:23:43;2.10;99.90
37938;DHT22;23763;48.130;11.602;2023-03-01T01:26:14;2.10;99.90
37938;DHT22;23763;48.130;11.602;2023-03-01T01:28:40;2.10;99.90
37938;DHT22;23763;48.130;11.602;2023-03-01T01:31:06;2.00;99.90
37938;DHT22;23763;48.130;11.602;2023-03-01T01:33:33;2.00;99.90
37938;DHT22;23763;48.130;11.602;2023-03-01T01:35:59;1.90;99.90
37938;DHT22;23763;48.130;11.602;2023-03-01T01:38:25;1.90;99.90
37938;DHT22;23763;48.130;11.602;2023-03-01T01:40:50;1.90;99.90
37938;DHT22;23763;48.130;11.602;2023-03-01T01:43:23;1.90;99.90
37938;DHT22;23763;48.130;11.602;2023-03-01T01:45:49;2.00;99.90
37938;DHT22;23763;48.130;11.602;2023-03-01T01:48:22;1.90;99.90
37938;DHT22;23763;48.130;11.602;2023-03-01T01:50:59;1.90;99.90
37938;DHT22;23763;48.130;11.602;2023-03-01T01:53:25;1.90;99.90
37938;DHT22;23763;48.130;11.602;2023-03-01T01:55:56;2.00;99.90
37938;DHT22;23763;48.130;11.602;2023-03-01T01:58:25;1.90;99.90
37938;DHT22;23763;48.130;11.602;2023-03-01T02:00:51;1.90;99.90
37938;DHT22;23763;48.130;11.602;2023-03-01T02:03:22;1.90;99.90
37938;DHT22;23763;48.130;11.602;2023-03-01T02:06:07;1.90;99.90
37938;DHT22;23763;48.130;11.602;2023-03-01T02:08:38;1.90;99.90
37938;DHT22;23763;48.130;11.602;2023-03-01T02:11:07;1.90;99.90
37938;DHT22;23763;48.130;11.602;2023-03-01T02:13:34;1.90;99.90
37938;DHT22;23763;48.130;11.602;2023-03-01T02:16:12;1.90;99.90
37938;DHT22;23763;48.130;11.602;2023-03-01T02:18:41;2.00;99.90
37938;DHT22;23763;48.130;11.602;2023-03-01T02:23:47;2.00;99.90
37938;DHT22;23763;48.130;11.602;2023-03-01T02:28:59;2.00;99.90
37938;DHT22;23763;48.130;11.602;2023-03-01T02:31:25;2.00;99.90
37938;DHT22;23763;48.130;11.602;2023-03-01T02:34:13;2.10;99.90
37938;DHT22;23763;48.130;11.602;2023-03-01T02:39:14;2.00;99.90
37938;DHT22;23763;48.130;11.602;2023-03-01T02:41:45;1.90;99.90
37938;DHT22;23763;48.130;11.602;2023-03-01T02:44:12;1.90;99.90
37938;DHT22;23763;48.130;11.602;2023-03-01T02:46:49;1.90;99.90
37938;DHT22;23763;48.130;11.602;2023-03-01T02:49:23;1.90;99.90
37938;DHT22;23763;48.130;11.602;2023-03-01T02:52:29;1.90;99.90
37938;DHT22;23763;48.130;11.602;2023-03-01T02:55:06;1.70;99.90
37938;DHT22;23763;48.130;11.602;2023-03-01T02:57:34;1.80;99.90
37938;DHT22;23763;48.130;11.602;2023-03-01T03:00:22;1.80;99.90
37938;DHT22;23763;48.130;11.602;2023-03-01T03:02:52;1.80;99.90
37938;DHT22;23763;48.130;11.602;2023-03-01T03:05:21;1.80;99.90
37938;DHT22;23763;48.130;11.602;2023-03-01T03:07:47;1.80;99.90
37938;DHT22;23763;48.130;11.602;2023-03-01T03:10:23;1.80;99.90
37938;DHT22;23763;48.130;11.602;2023-03-01T03:12:56;1.70;99.90
37938;DHT22;23763;48.130;11.602;2023-03-01T03:15:23;1.70;99.90
37938;DHT22;23763;48.130;11.602;2023-03-01T03:17:50;1.60;99.90
37938;DHT22;23763;48.130;11.602;2023-03-01T03:20:18;1.70;99.90
37938;DHT22;23763;48.130;11.602;2023-03-01T03:22:49;1.60;99.90
37938;DHT22;23763;48.130;11.602;2023-03-01T03:25:16;1.60;99.90
37938;DHT22;23763;48.130;11.602;2023-03-01T03:27:43;1.60;99.90
37938;DHT22;23763;48.130;11.602;2023-03-01T03:30:12;1.60;99.90
37938;DHT22;23763;48.130;11.602;2023-03-01T03:32:39;1.60;99.90
37938;DHT22;23763;48.130;11.602;2023-03-01T03:35:07;1.70;99.90
37938;DHT22;23763;48.130;11.602;2023-03-01T03:37:38;1.70;99.90
37938;DHT22;23763;48.130;11.602;2023-03-01T03:40:22;1.70;99.90
37938;DHT22;23763;48.130;11.602;2023-03-01T03:42:48;1.60;99.90
37938;DHT22;23763;48.130;11.602;2023-03-01T03:45:15;1.60;99.90
37938;DHT22;23763;48.130;11.602;2023-03-01T03:47:41;1.60;99.90
37938;DHT22;23763;48.130;11.602;2023-03-01T03:50:08;1.50;99.90
37938;DHT22;23763;48.130;11.602;2023-03-01T03:52:34;1.50;99.90
37938;DHT22;23763;48.130;11.602;2023-03-01T03:54:59;1.50;99.90
37938;DHT22;23763;48.130;11.602;2023-03-01T03:57:25;1.40;99.90
37938;DHT22;23763;48.130;11.602;2023-03-01T03:59:50;1.40;99.90
37938;DHT22;23763;48.130;11.602;2023-03-01T04:02:16;1.30;99.90
37938;DHT22;23763;48.130;11.602;2023-03-01T04:04:48;1.20;99.90
37938;DHT22;23763;48.130;11.602;2023-03-01T04:07:15;1.20;99.90
37938;DHT22;23763;48.130;11.602;2023-03-01T04:09:42;1.20;99.90
37938;DHT22;23763;48.130;11.602;2023-03-01T04:12:09;1.20;99.90
37938;DHT22;23763;48.130;11.602;2023-03-01T04:14:34;1.30;99.90
37938;DHT22;23763;48.130;11.602;2023-03-01T04:17:00;1.20;99.90
37938;DHT22;23763;48.130;11.602;2023-03-01T04:19:26;1.30;99.90
37938;DHT22;23763;48.130;11.602;2023-03-01T04:21:52;1.30;99.90
37938;DHT22;23763;48.130;11.602;2023-03-01T04:24:18;1.40;99.90
37938;DHT22;23763;48.130;11.602;2023-03-01T04:26:44;1.40;99.90
37938;DHT22;23763;48.130;11.602;2023-03-01T04:29:09;1.30;99.90
37938;DHT22;23763;48.130;11.602;2023-03-01T04:31:35;1.20;99.90
37938;DHT22;23763;48.130;11.602;2023-03-01T04:34:01;1.20;99.90
37938;DHT22;23763;48.130;11.602;2023-03-01T04:36:28;1.20;99.90
37938;DHT22;23763;48.130;11.602;2023-03-01T04:38:55;1.00;99.90
37938;DHT22;23763;48.130;11.602;2023-03-01T04:41:23;1.10;99.90
37938;DHT22;23763;48.130;11.602;2023-03-01T04:43:49;1.10;99.90
37938;DHT22;23763;48.130;11.602;2023-03-01T04:46:17;1.10;99.90
37938;DHT22;23763;48.130;11.602;2023-03-01T04:48:44;1.20;99.90
37938;DHT22;23763;48.130;11.602;2023-03-01T04:51:11;1.10;99.90
37938;DHT22;23763;48.130;11.602;2023-03-01T04:53:39;1.10;99.90
37938;DHT22;23763;48.130;11.602;2023-03-01T04:56:05;1.10;99.90
37938;DHT22;23763;48.130;11.602;2023-03-01T04:58:31;1.00;99.90
37938;DHT22;23763;48.130;11.602;2023-03-01T05:00:57;1.00;99.90
37938;DHT22;23763;48.130;11.602;2023-03-01T05:03:22;1.00;99.90
37938;DHT22;23763;48.130;11.602;2023-03-01T05:05:50;1.10;99.90
37938;DHT22;23763;48.130;11.602;2023-03-01T05:08:16;1.10;99.90
37938;DHT22;23763;48.130;11.602;2023-03-01T05:10:52;1.00;99.90
37938;DHT22;23763;48.130;11.602;2023-03-01T05:13:19;1.10;99.90
37938;DHT22;23763;48.130;11.602;2023-03-01T05:15:56;1.10;99.90
37938;DHT22;23763;48.130;11.602;2023-03-01T05:18:23;0.90;99.90
37938;DHT22;23763;48.130;11.602;2023-03-01T05:20:55;0.80;99.90
37938;DHT22;23763;48.130;11.602;2023-03-01T05:23:24;0.80;99.90
37938;DHT22;23763;48.130;11.602;2023-03-01T05:25:50;0.80;99.90
37938;DHT22;23763;48.130;11.602;2023-03-01T05:28:17;0.70;99.90
37938;DHT22;23763;48.130;11.602;2023-03-01T05:30:43;0.70;99.90
37938;DHT22;23763;48.130;11.602;2023-03-01T05:33:09;0.70;99.90
37938;DHT22;23763;48.130;11.602;2023-03-01T05:35:43;0.70;99.90
37938;DHT22;23763;48.130;11.602;2023-03-01T05:38:10;0.70;99.90
37938;DHT22;23763;48.130;11.602;2023-03-01T05:40:39;0.70;99.90
37938;DHT22;23763;48.130;11.602;2023-03-01T05:43:05;0.70;99.90
37938;DHT22;23763;48.130;11.602;2023-03-01T05:45:31;0.70;99.90
37938;DHT22;23763;48.130;11.602;2023-03-01T05:47:58;0.70;99.90
37938;DHT22;23763;48.130;11.602;2023-03-01T05:50:29;0.60;99.90
37938;DHT22;23763;48.130;11.602;2023-03-01T05:53:01;0.50;99.90
37938;DHT22;23763;48.130;11.602;2023-03-01T05:55:28;0.50;99.90
37938;DHT22;23763;48.130;11.602;2023-03-01T05:57:54;0.50;99.90
37938;DHT22;23763;48.130;11.602;2023-03-01T06:00:21;0.50;99.90
37938;DHT22;23763;48.130;11.602;2023-03-01T06:02:50;0.50;99.90
37938;DHT22;23763;48.130;11.602;2023-03-01T06:05:17;0.40;99.90
37938;DHT22;23763;48.130;11.602;2023-03-01T06:07:43;0.40;99.90
37938;DHT22;23763;48.130;11.602;2023-03-01T06:10:10;0.50;99.90
37938;DHT22;23763;48.130;11.602;2023-03-01T06:12:38;0.50;99.90
37938;DHT22;23763;48.130;11.602;2023-03-01T06:15:05;0.50;99.90
37938;DHT22;23763;48.130;11.602;2023-03-01T06:17:34;0.50;99.90
37938;DHT22;23763;48.130;11.602;2023-03-01T06:20:26;0.50;99.90
37938;DHT22;23763;48.130;11.602;2023-03-01T06:22:52;0.50;99.90
37938;DHT22;23763;48.130;11.602;2023-03-01T06:25:21;0.60;99.90
37938;DHT22;23763;48.130;11.602;2023-03-01T06:27:47;0.70;99.90
37938;DHT22;23763;48.130;11.602;2023-03-01T06:30:16;0.70;99.90
37938;DHT22;23763;48.130;11.602;2023-03-01T06:32:42;0.80;99.90
37938;DHT22;23763;48.130;11.602;2023-03-01T06:35:09;0.70;99.90
37938;DHT22;23763;48.130;11.602;2023-03-01T06:37:35;0.70;99.90
37938;DHT22;23763;48.130;11.602;2023-03-01T06:40:03;0.60;99.90
37938;DHT22;23763;48.130;11.602;2023-03-01T06:42:36;0.60;99.90
37938;DHT22;23763;48.130;11.602;2023-03-01T06:45:02;0.60;99.90
37938;DHT22;23763;48.130;11.602;2023-03-01T06:47:28;0.70;99.90
37938;DHT22;23763;48.130;11.602;2023-03-01T06:49:54;0.70;99.90
37938;DHT22;23763;48.130;11.602;2023-03-01T06:52:19;0.80;99.90
37938;DHT22;23763;48.130;11.602;2023-03-01T06:54:45;0.70;99.90
37938;DHT22;23763;48.130;11.602;2023-03-01T06:57:10;0.70;99.90
37938;DHT22;23763;48.130;11.602;2023-03-01T06:59:36;0.60;99.90
37938;DHT22;23763;48.130;11.602;2023-03-01T07:02:01;0.60;99.90
37938;DHT22;23763;48.130;11.602;2023-03-01T07:04:27;0.60;99.90
37938;DHT22;23763;48.130;11.602;2023-03-01T07:06:54;0.60;99.90
37938;DHT22;23763;48.130;11.602;2023-03-01T07:09:24;0.60;99.90
37938;DHT22;23763;48.130;11.602;2023-03-01T07:11:49;0.70;99.90
37938;DHT22;23763;48.130;11.602;2023-03-01T07:14:16;0.80;99.90
37938;DHT22;23763;48.130;11.602;2023-03-01T07:16:41;0.80;99.90
37938;DHT22;23763;48.130;11.602;2023-03-01T07:19:07;0.70;99.90
37938;DHT22;23763;48.130;11.602;2023-03-01T07:21:33;0.70;99.90
37938;DHT22;23763;48.130;11.602;2023-03-01T07:23:58;0.80;99.90
37938;DHT22;23763;48.130;11.602;2023-03-01T07:26:24;0.80;99.90
37938;DHT22;23763;48.130;11.602;2023-03-01T07:28:49;0.90;99.90
37938;DHT22;23763;48.130;11.602;2023-03-01T07:31:15;0.90;99.90
37938;DHT22;23763;48.130;11.602;2023-03-01T07:33:40;1.00;99.90
37938;DHT22;23763;48.130;11.602;2023-03-01T07:36:06;1.10;99.90
37938;DHT22;23763;48.130;11.602;2023-03-01T07:38:32;1.00;99.90
37938;DHT22;23763;48.130;11.602;2023-03-01T07:41:03;1.00;99.90
37938;DHT22;23763;48.130;11.602;2023-03-01T07:43:30;1.00;99.90
37938;DHT22;23763;48.130;11.602;2023-03-01T07:45:59;1.10;99.90
37938;DHT22;23763;48.130;11.602;2023-03-01T07:48:25;1.20;99.90
37938;DHT22;23763;48.130;11.602;2023-03-01T07:50:51;1.20;99.90
37938;DHT22;23763;48.130;11.602;2023-03-01T07:53:16;1.20;99.90
37938;DHT22;23763;48.130;11.602;2023-03-01T07:55:42;1.20;99.90
37938;DHT22;23763;48.130;11.602;2023-03-01T07:58:08;1.30;99.90
37938;DHT22;23763;48.130;11.602;2023-03-01T08:00:33;1.30;99.90
37938;DHT22;23763;48.130;11.602;2023-03-01T08:03:00;1.40;99.90
37938;DHT22;23763;48.130;11.602;2023-03-01T08:05:26;1.30;99.90
37938;DHT22;23763;48.130;11.602;2023-03-01T08:07:52;1.20;99.90
37938;DHT22;23763;48.130;11.602;2023-03-01T08:10:18;1.20;99.90
37938;DHT22;23763;48.130;11.602;2023-03-01T08:12:44;1.20;99.90
37938;DHT22;23763;48.130;11.602;2023-03-01T08:15:12;1.30;99.90
37938;DHT22;23763;48.130;11.602;2023-03-01T08:17:37;1.40;99.90
37938;DHT22;23763;48.130;11.602;2023-03-01T08:20:03;1.50;99.90
37938;DHT22;23763;48.130;11.602;2023-03-01T08:22:32;1.50;99.90
37938;DHT22;23763;48.130;11.602;2023-03-01T08:24:58;1.50;99.90
37938;DHT22;23763;48.130;11.602;2023-03-01T08:27:23;1.70;99.90
37938;DHT22;23763;48.130;11.602;2023-03-01T08:29:49;1.80;99.90
37938;DHT22;23763;48.130;11.602;2023-03-01T08:32:14;1.90;99.90
37938;DHT22;23763;48.130;11.602;2023-03-01T08:34:40;2.10;99.90
37938;DHT22;23763;48.130;11.602;2023-03-01T08:37:06;2.10;99.90
37938;DHT22;23763;48.130;11.602;2023-03-01T08:39:32;2.00;99.90
37938;DHT22;23763;48.130;11.602;2023-03-01T08:41:57;2.00;99.90
37938;DHT22;23763;48.130;11.602;2023-03-01T08:44:23;2.20;99.90
37938;DHT22;23763;48.130;11.602;2023-03-01T08:46:50;2.10;99.90
37938;DHT22;23763;48.130;11.602;2023-03-01T08:49:18;2.00;99.90
37938;DHT22;23763;48.130;11.602;2023-03-01T08:51:46;2.10;99.90
37938;DHT22;23763;48.130;11.602;2023-03-01T08:54:17;2.20;99.90
37938;DHT22;23763;48.130;11.602;2023-03-01T08:56:43;2.10;99.90
37938;DHT22;23763;48.130;11.602;2023-03-01T08:59:11;2.00;99.90
37938;DHT22;23763;48.130;11.602;2023-03-01T09:01:37;2.10;99.90
37938;DHT22;23763;48.130;11.602;2023-03-01T09:04:03;2.40;99.90
37938;DHT22;23763;48.130;11.602;2023-03-01T09:06:31;2.50;99.90
37938;DHT22;23763;48.130;11.602;2023-03-01T09:08:58;2.60;99.90
37938;DHT22;23763;48.130;11.602;2023-03-01T09:11:24;2.60;99.90
37938;DHT22;23763;48.130;11.602;2023-03-01T09:13:50;2.70;99.90
37938;DHT22;23763;48.130;11.602;2023-03-01T09:16:18;2.80;99.90
37938;DHT22;23763;48.130;11.602;2023-03-01T09:18:45;2.70;99.90
37938;DHT22;23763;48.130;11.602;2023-03-01T09:21:14;2.60;99.90
37938;DHT22;23763;48.130;11.602;2023-03-01T09:23:42;2.70;99.90
37938;DHT22;23763;48.130;11.602;2023-03-01T09:26:14;2.80;99.90
37938;DHT22;23763;48.130;11.602;2023-03-01T09:28:42;2.70;99.90
37938;DHT22;23763;48.130;11.602;2023-03-01T09:31:08;2.80;99.90
37938;DHT22;23763;48.130;11.602;2023-03-01T09:33:34;2.70;99.90
37938;DHT22;23763;48.130;11.602;2023-03-01T09:36:04;2.90;99.90
37938;DHT22;23763;48.130;11.602;2023-03-01T09:38:30;2.90;99.90
37938;DHT22;23763;48.130;11.602;2023-03-01T09:40:56;2.80;99.90
37938;DHT22;23763;48.130;11.602;2023-03-01T09:43:41;2.90;99.90
37938;DHT22;23763;48.130;11.602;2023-03-01T09:46:11;3.00;99.90
37938;DHT22;23763;48.130;11.602;2023-03-01T09:48:46;3.10;99.90
37938;DHT22;23763;48.130;11.602;2023-03-01T09:51:18;3.40;99.90
37938;DHT22;23763;48.130;11.602;2023-03-01T09:53:44;3.50;99.90
37938;DHT22;23763;48.130;11.602;2023-03-01T09:56:32;3.40;99.90
37938;DHT22;23763;48.130;11.602;2023-03-01T10:02:11;3.50;99.90
37938;DHT22;23763;48.130;11.602;2023-03-01T10:04:48;3.30;99.90
37938;DHT22;23763;48.130;11.602;2023-03-01T10:09:48;3.60;99.90
37938;DHT22;23763;48.130;11.602;2023-03-01T10:12:18;3.40;99.90
37938;DHT22;23763;48.130;11.602;2023-03-01T10:20:42;3.20;99.90
37938;DHT22;23763;48.130;11.602;2023-03-01T10:23:09;3.00;99.90
37938;DHT22;23763;48.130;11.602;2023-03-01T10:25:50;3.20;99.90
37938;DHT22;23763;48.130;11.602;2023-03-01T10:28:29;3.30;99.90
37938;DHT22;23763;48.130;11.602;2023-03-01T10:30:58;3.40;99.90
37938;DHT22;23763;48.130;11.602;2023-03-01T10:33:27;3.50;99.90
37938;DHT22;23763;48.130;11.602;2023-03-01T10:35:54;3.80;99.90
37938;DHT22;23763;48.130;11.602;2023-03-01T10:38:55;3.90;99.90
37938;DHT22;23763;48.130;11.602;2023-03-01T10:41:59;3.70;99.90
37938;DHT22;23763;48.130;11.602;2023-03-01T10:44:39;4.00;99.90
37938;DHT22;23763;48.130;11.602;2023-03-01T10:48:14;4.00;99.90
37938;DHT22;23763;48.130;11.602;2023-03-01T10:50:37;4.00;99.90
37938;DHT22;23763;48.130;11.602;2023-03-01T10:56:13;3.50;99.90
37938;DHT22;23763;48.130;11.602;2023-03-01T11:01:26;4.00;99.90
37938;DHT22;23763;48.130;11.602;2023-03-01T11:06:30;3.80;99.90
37938;DHT22;23763;48.130;11.602;2023-03-01T11:08:56;3.60;99.90
37938;DHT22;23763;48.130;11.602;2023-03-01T11:11:31;3.60;99.90
37938;DHT22;23763;48.130;11.602;2023-03-01T11:14:27;3.70;99.90
37938;DHT22;23763;48.130;11.602;2023-03-01T11:19:24;4.10;99.90
37938;DHT22;23763;48.130;11.602;2023-03-01T11:21:58;4.40;99.90
37938;DHT22;23763;48.130;11.602;2023-03-01T11:24:37;4.40;99.90
37938;DHT22;23763;48.130;11.602;2023-03-01T11:27:26;4.50;99.90
37938;DHT22;23763;48.130;11.602;2023-03-01T11:30:29;4.30;99.90
37938;DHT22;23763;48.130;11.602;2023-03-01T11:35:36;4.50;99.90
37938;DHT22;23763;48.130;11.602;2023-03-01T11:38:22;4.50;99.90
37938;DHT22;23763;48.130;11.602;2023-03-01T11:49:23;4.90;99.90
37938;DHT22;23763;48.130;11.602;2023-03-01T11:54:59;5.10;99.90
37938;DHT22;23763;48.130;11.602;2023-03-01T12:06:26;4.90;99.90
37938;DHT22;23763;48.130;11.602;2023-03-01T12:17:57;5.30;99.90
37938;DHT22;23763;48.130;11.602;2023-03-01T12:20:53;5.40;99.90
37938;DHT22;23763;48.130;11.602;2023-03-01T12:31:50;5.50;99.90
37938;DHT22;23763;48.130;11.602;2023-03-01T12:42:43;5.40;99.90
37938;DHT22;23763;48.130;11.602;2023-03-01T12:48:21;5.40;99.90
37938;DHT22;23763;48.130;11.602;2023-03-01T12:50:52;5.30;99.90
37938;DHT22;23763;48.130;11.602;2023-03-01T12:55:47;5.60;99.90
37938;DHT22;23763;48.130;11.602;2023-03-01T13:10:02;5.60;99.90
37938;DHT22;23763;48.130;11.602;2023-03-01T13:13:02;5.60;99.90
37938;DHT22;23763;48.130;11.602;2023-03-01T13:15:33;5.80;99.90
37938;DHT22;23763;48.130;11.602;2023-03-01T13:18:11;5.60;99.90
37938;DHT22;23763;48.130;11.602;2023-03-01T13:20:56;5.80;99.90
37938;DHT22;23763;48.130;11.602;2023-03-01T13:26:17;5.90;99.90
37938;DHT22;23763;48.130;11.602;2023-03-01T13:28:52;5.90;99.90
37938;DHT22;23763;48.130;11.602;2023-03-01T13:46:50;6.00;99.90
37938;DHT22;23763;48.130;11.602;2023-03-01T13:49:22;6.00;99.90
37938;DHT22;23763;48.130;11.602;2023-03-01T13:51:50;6.10;99.90
37938;DHT22;23763;48.130;11.602;2023-03-01T13:54:25;6.20;99.90
37938;DHT22;23763;48.130;11.602;2023-03-01T13:56:51;6.10;99.90
37938;DHT22;23763;48.130;11.602;2023-03-01T13:59:19;6.00;99.90
37938;DHT22;23763;48.130;11.602;2023-03-01T14:01:52;6.10;99.90
37938;DHT22;23763;48.130;11.602;2023-03-01T14:04:38;6.30;99.90
37938;DHT22;23763;48.130;11.602;2023-03-01T14:07:32;6.20;99.90
37938;DHT22;23763;48.130;11.602;2023-03-01T14:10:05;6.20;99.90
37938;DHT22;23763;48.130;11.602;2023-03-01T14:15:19;6.30;99.90
37938;DHT22;23763;48.130;11.602;2023-03-01T14:20:29;6.20;99.90
37938;DHT22;23763;48.130;11.602;2023-03-01T14:22:58;6.30;99.90
37938;DHT22;23763;48.130;11.602;2023-03-01T14:25:33;6.40;99.90
37938;DHT22;23763;48.130;11.602;2023-03-01T14:28:18;6.30;99.90
37938;DHT22;23763;48.130;11.602;2023-03-01T14:30:49;6.40;99.90
37938;DHT22;23763;48.130;11.602;2023-03-01T14:33:23;6.40;99.90
37938;DHT22;23763;48.130;11.602;2023-03-01T14:38:33;6.40;99.90
37938;DHT22;23763;48.130;11.602;2023-03-01T14:43:53;6.30;99.90
37938;DHT22;23763;48.130;11.602;2023-03-01T14:46:25;6.40;99.90
37938;DHT22;23763;48.130;11.602;2023-03-01T14:48:54;6.40;99.90
37938;DHT22;23763;48.130;11.602;2023-03-01T14:51:21;6.40;99.90
37938;DHT22;23763;48.130;11.602;2023-03-01T14:53:46;6.40;99.90
37938;DHT22;23763;48.130;11.602;2023-03-01T14:56:15;6.50;99.90
37938;DHT22;23763;48.130;11.602;2023-03-01T14:58:45;6.40;99.90
37938;DHT22;23763;48.130;11.602;2023-03-01T15:01:17;6.40;99.90
37938;DHT22;23763;48.130;11.602;2023-03-01T15:03:46;6.50;99.90
37938;DHT22;23763;48.130;11.602;2023-03-01T15:06:17;6.50;99.90
37938;DHT22;23763;48.130;11.602;2023-03-01T15:08:47;6.60;99.90
37938;DHT22;23763;48.130;11.602;2023-03-01T15:13:42;6.70;99.90
37938;DHT22;23763;48.130;11.602;2023-03-01T15:16:16;6.60;99.90
37938;DHT22;23763;48.130;11.602;2023-03-01T15:18:47;6.80;99.90
37938;DHT22;23763;48.130;11.602;2023-03-01T15:21:23;6.90;99.90
37938;DHT22;23763;48.130;11.602;2023-03-01T15:23:55;7.00;99.90
37938;DHT22;23763;48.130;11.602;2023-03-01T15:26:30;6.90;99.90
37938;DHT22;23763;48.130;11.602;2023-03-01T15:29:32;7.00;99.90
37938;DHT22;23763;48.130;11.602;2023-03-01T15:34:51;7.00;99.90
37938;DHT22;23763;48.130;11.602;2023-03-01T15:40:35;6.90;99.90
37938;DHT22;23763;48.130;11.602;2023-03-01T15:43:05;6.90;99.90
37938;DHT22;23763;48.130;11.602;2023-03-01T15:45:39;6.80;99.90
37938;DHT22;23763;48.130;11.602;2023-03-01T15:48:25;6.90;99.90
37938;DHT22;23763;48.130;11.602;2023-03-01T15:50:59;6.80;99.90
37938;DHT22;23763;48.130;11.602;2023-03-01T15:53:27;6.80;99.90
37938;DHT22;23763;48.130;11.602;2023-03-01T15:55:56;6.70;99.90
37938;DHT22;23763;48.130;11.602;2023-03-01T15:58:25;6.70;99.90
37938;DHT22;23763;48.130;11.602;2023-03-01T16:00:51;6.50;99.90
37938;DHT22;23763;48.130;11.602;2023-03-01T16:03:22;6.50;99.90
37938;DHT22;23763;48.130;11.602;2023-03-01T16:05:48;6.40;99.90
37938;DHT22;23763;48.130;11.602;2023-03-01T16:08:16;6.30;99.90
37938;DHT22;23763;48.130;11.602;2023-03-01T16:10:42;6.30;99.90
37938;DHT22;23763;48.130;11.602;2023-03-01T16:13:13;6.30;99.90
37938;DHT22;23763;48.130;11.602;2023-03-01T16:15:39;6.30;99.90
37938;DHT22;23763;48.130;11.602;2023-03-01T16:18:06;6.30;99.90
37938;DHT22;23763;48.130;11.602;2023-03-01T16:20:33;6.30;99.90
37938;DHT22;23763;48.130;11.602;2023-03-01T16:23:00;6.30;99.90
37938;DHT22;23763;48.130;11.602;2023-03-01T16:25:26;6.20;99.90
37938;DHT22;23763;48.130;11.602;2023-03-01T16:27:52;6.20;99.90
37938;DHT22;23763;48.130;11.602;2023-03-01T16:30:20;6.20;99.90
37938;DHT22;23763;48.130;11.602;2023-03-01T16:32:47;6.10;99.90
37938;DHT22;23763;48.130;11.602;2023-03-01T16:35:16;6.10;99.90
37938;DHT22;23763;48.130;11.602;2023-03-01T16:37:42;6.10;99.90
37938;DHT22;23763;48.130;11.602;2023-03-01T16:40:20;6.00;99.90
37938;DHT22;23763;48.130;11.602;2023-03-01T16:42:50;6.00;99.90
37938;DHT22;23763;48.130;11.602;2023-03-01T16:45:16;6.00;99.90
37938;DHT22;23763;48.130;11.602;2023-03-01T16:47:42;5.90;99.90
37938;DHT22;23763;48.130;11.602;2023-03-01T16:50:08;5.90;99.90
37938;DHT22;23763;48.130;11.602;2023-03-01T16:52:34;5.90;99.90
37938;DHT22;23763;48.130;11.602;2023-03-01T16:55:01;5.80;99.90
37938;DHT22;23763;48.130;11.602;2023-03-01T16:57:27;5.90;99.90
37938;DHT22;23763;48.130;11.602;2023-03-01T16:59:52;5.80;99.90
37938;DHT22;23763;48.130;11.602;2023-03-01T17:02:19;5.80;99.90
37938;DHT22;23763;48.130;11.602;2023-03-01T17:04:50;5.80;99.90
37938;DHT22;23763;48.130;11.602;2023-03-01T17:07:16;5.70;99.90
37938;DHT22;23763;48.130;11.602;2023-03-01T17:09:42;5.70;99.90
37938;DHT22;23763;48.130;11.602;2023-03-01T17:12:07;5.70;99.90
37938;DHT22;23763;48.130;11.602;2023-03-01T17:14:33;5.60;99.90
37938;DHT22;23763;48.130;11.602;2023-03-01T17:16:59;5.60;99.90
37938;DHT22;23763;48.130;11.602;2023-03-01T17:19:26;5.40;99.90
37938;DHT22;23763;48.130;11.602;2023-03-01T17:21:52;5.30;99.90
37938;DHT22;23763;48.130;11.602;2023-03-01T17:24:18;5.10;99.90
37938;DHT22;23763;48.130;11.602;2023-03-01T17:26:44;5.00;99.90
37938;DHT22;23763;48.130;11.602;2023-03-01T17:29:09;4.90;99.90
37938;DHT22;23763;48.130;11.602;2023-03-01T17:31:35;4.80;99.90
37938;DHT22;23763;48.130;11.602;2023-03-01T17:34:01;4.70;99.90
37938;DHT22;23763;48.130;11.602;2023-03-01T17:36:27;4.60;99.90
37938;DHT22;23763;48.130;11.602;2023-03-01T17:38:52;4.50;99.90
37938;DHT22;23763;48.130;11.602;2023-03-01T17:41:18;4.40;99.90
37938;DHT22;23763;48.130;11.602;2023-03-01T17:43:45;4.40;99.90
37938;DHT22;23763;48.130;11.602;2023-03-01T17:46:11;4.40;99.90
37938;DHT22;23763;48.130;11.602;2023-03-01T17:48:37;4.40;99.90
37938;DHT22;23763;48.130;11.602;2023-03-01T17:51:07;4.40;99.90
37938;DHT22;23763;48.130;11.602;2023-03-01T17:53:33;4.30;99.90
37938;DHT22;23763;48.130;11.602;2023-03-01T17:56:00;4.20;99.90
37938;DHT22;23763;48.130;11.602;2023-03-01T17:58:27;4.30;99.90